Weatherford, OK (73096)

8:39 PM CDT on September 30, 2014 (GMT -0500)
Clinton Municipal | Change Station
CLOSE
Current Station
Airport
Location: Clinton,
Elevation: 1614 ft
Nearby Weather Stations
4.1 Earthquake: Perry, Oklahoma (22 hours ago)  

Elev 1614 ft 35.54 °N, 98.93 °W | Updated 24 minutes ago

Clear
Clear
79 °F
Feels Like 79 °F
N
13
Wind Variable Wind from SSE

Today
High -- | Low -- °F
--% Chance of Precip.
Yesterday
High -- | Low -- °F
Precip. -- in
7:28 AM 7:19 PM
Waxing Crescent, 42% visible
Pressure 29.73 in
Visibility 10.0 miles
Clouds Scattered Clouds 9000 ft
Dew Point 50 °F
Humidity 36%
Rainfall 0.00 in
Snow Depth Not available.
UV 0 out of 12
Pollen 9.70 out of 12
Air Quality Not available.
Flu Activity Not available.
METAR KCLK 010115Z AUTO 15011KT 10SM SCT090 26/10 A2973 RMK AO2

More Conditions Fewer Conditions

Pressure 29.73 in
Visibility 10.0 miles
Clouds Scattered Clouds 9000 ft
Dew Point 50 °F
Humidity 36%
Rainfall 0.00 in
Snow Depth Not available.
UV 0 out of 12
Pollen 9.70 out of 12
Air Quality Not available.
Flu Activity Not available.
METAR KCLK 010115Z AUTO 15011KT 10SM SCT090 26/10 A2973 RMK AO2

More Conditions Fewer Conditions

10-Day Weather Forecast

Almanac

Astronomy

Sep. 30, 2014 Rise Set
Actual Time 7:28 AM CDT 7:19 PM CDT
Civil Twilight 7:03 AM CDT 7:45 PM CDT
Nautical Twilight 6:33 AM CDT 8:14 PM CDT
Astronomical Twilight 6:04 AM CDT 8:44 PM CDT
Moon 1:29 PM CDT (9/30) No Moon Set
Length of Visible Light 12h 41m
Length of Day
11h 50m
Tomorrow will be 2m 13s shorter.
Waxing Crescent, 42% of the Moon is Illuminated
Today
Waxing Crescent
Oct 1
First Quarter
Oct 8
Full
Oct 15
Last Quarter
Oct 23
New

Today's Extremes

State Highs State Lows

Community

WunderPhotos

Upload Photos

1,757,821 photos uploaded!

Nearby

Snow Depth

Station Depth Elevation
No new snow has been reported.

Earthquake Activity

City Distance Mag. Time & Date
Spencer, Oklahoma 73 miles 3.0 5:12 PM CDT
2014-09-30
Perry, Oklahoma 92 miles 2.6 2:34 PM CDT
2014-09-30
Harper, Kansas 125 miles 2.9 1:49 PM CDT
2014-09-30
Yale, Oklahoma 120 miles 2.6 11:29 AM CDT
2014-09-30
Minimum magnitude displayed is 2.5.

Coastal Water Temperatures

Place Temperature
No Stations Reporting

Nearby Weather Stations